Time;durP1;ratioP1;P1;durP2;ratioP2;P2;SDS_P1;SDS_P2;PMS_P1;PMS_P2;Temp;Humidity;BMP_temperature;BMP_pressure;BME280_temperature;BME280_humidity;BME280_pressure;Samples;Min_cycle;Max_cycle;Signal;HPM_P1;HPM_P2
2023/05/21 00:01:33;;;;;;;7.78;5.90;;;;;;;13.93;74.48;101770.59;5343957;22;20083;-64
2023/05/21 00:03:58;;;;;;;7.60;5.88;;;;;;;13.93;73.46;101771.47;5247110;22;20580;-64
2023/05/21 00:06:24;;;;;;;7.53;5.85;;;;;;;13.91;73.78;101775.78;5352725;22;20177;-64
2023/05/21 00:11:22;;;;;;;8.55;6.30;;;;;;;13.87;73.79;101760.84;5314366;23;20053;-65
2023/05/21 00:16:24;;;;;;;8.82;6.10;;;;;;;13.86;73.75;101753.81;5033732;22;20112;-64
2023/05/21 00:18:50;;;;;;;7.45;6.10;;;;;;;13.85;74.12;101750.31;5510725;22;20024;-64
2023/05/21 00:21:16;;;;;;;8.73;6.80;;;;;;;13.79;73.74;101746.66;5264545;22;1070474;-64
2023/05/21 00:23:44;;;;;;;13.55;10.25;;;;;;;13.76;74.23;101751.81;5245914;22;20053;-64
2023/05/21 00:26:10;;;;;;;26.23;18.80;;;;;;;13.67;74.28;101756.00;5207272;23;20531;-64
2023/05/21 00:28:35;;;;;;;27.30;20.98;;;;;;;13.70;75.18;101753.44;5032461;28;20028;-65
2023/05/21 00:31:00;;;;;;;26.67;20.08;;;;;;;13.68;74.98;101749.88;5192450;22;20119;-64
2023/05/21 00:33:28;;;;;;;22.13;16.95;;;;;;;13.66;74.46;101751.59;5014955;28;20033;-64
2023/05/21 00:38:26;;;;;;;13.02;10.55;;;;;;;13.64;75.19;101755.88;5294890;22;20153;-64
2023/05/21 00:40:52;;;;;;;11.98;9.73;;;;;;;13.61;74.82;101742.72;5003392;28;20362;-64
2023/05/21 00:43:17;;;;;;;10.27;8.15;;;;;;;13.61;75.64;101747.97;5374697;22;20068;-64
2023/05/21 00:50:43;;;;;;;8.32;6.20;;;;;;;13.48;76.40;101731.03;5227946;23;20112;-64
2023/05/21 00:53:09;;;;;;;8.00;6.20;;;;;;;13.47;76.45;101741.47;5171678;22;20551;-64
2023/05/21 00:55:38;;;;;;;7.95;5.78;;;;;;;13.48;75.30;101746.75;5224639;22;20057;-64
2023/05/21 01:00:39;;;;;;;7.63;6.15;;;;;;;13.46;76.20;101737.09;5327789;22;20057;-65
2023/05/21 01:03:04;;;;;;;7.72;5.78;;;;;;;13.39;76.64;101736.94;5204481;22;20144;-64
2023/05/21 01:08:04;;;;;;;8.50;6.32;;;;;;;13.33;77.38;101741.97;5288369;22;20891;-65
2023/05/21 01:10:30;;;;;;;7.88;6.20;;;;;;;13.34;77.45;101737.66;5108281;22;20069;-64
2023/05/21 01:12:57;;;;;;;7.90;6.57;;;;;;;13.27;77.54;101739.19;5439018;23;20125;-64
2023/05/21 01:17:57;;;;;;;8.57;6.43;;;;;;;13.23;77.32;101737.34;5343580;23;20053;-64
2023/05/21 01:20:23;;;;;;;7.55;6.18;;;;;;;13.19;78.17;101728.53;5228167;22;20713;-64
2023/05/21 01:22:55;;;;;;;8.43;6.60;;;;;;;13.18;78.27;101731.13;5226333;23;20059;-65
2023/05/21 01:28:03;;;;;;;8.75;6.13;;;;;;;13.16;78.37;101732.78;5332655;22;20024;-65
2023/05/21 01:35:40;;;;;;;7.72;6.05;;;;;;;12.97;79.18;101734.00;5495102;22;20024;-64
2023/05/21 01:38:08;;;;;;;6.78;5.95;;;;;;;12.95;77.93;101731.34;5344024;23;20021;-64
2023/05/21 01:48:06;;;;;;;7.40;5.65;;;;;;;12.92;79.14;101728.66;4981162;28;20074;-65
2023/05/21 01:55:40;;;;;;;7.75;5.72;;;;;;;12.91;79.55;101726.88;5327196;22;20053;-65
2023/05/21 01:58:06;;;;;;;6.68;5.78;;;;;;;12.94;80.31;101719.09;5225832;23;20056;-64
2023/05/21 02:00:33;;;;;;;10.57;5.75;;;;;;;12.95;79.41;101722.63;5193284;22;20104;-64
2023/05/21 02:02:59;;;;;;;6.82;5.82;;;;;;;12.97;78.05;101723.53;5032601;28;20041;-64
2023/05/21 02:05:24;;;;;;;8.07;6.10;;;;;;;12.96;80.30;101719.16;5239430;23;20412;-65
2023/05/21 02:10:16;;;;;;;7.35;6.00;;;;;;;12.99;80.76;101716.59;5278686;23;20460;-64
2023/05/21 02:12:42;;;;;;;8.25;6.07;;;;;;;13.03;80.66;101706.31;5254269;23;20040;-64
2023/05/21 02:22:45;;;;;;;7.70;5.90;;;;;;;12.96;81.35;101716.53;5201382;23;20111;-65
2023/05/21 02:27:46;;;;;;;8.77;6.20;;;;;;;12.99;80.48;101714.91;5412264;22;20057;-65
2023/05/21 02:30:13;;;;;;;7.25;5.47;;;;;;;13.01;80.87;101715.81;5374777;22;20057;-64
2023/05/21 02:32:41;;;;;;;7.20;5.90;;;;;;;13.02;81.11;101720.22;5226004;23;20416;-64
2023/05/21 02:35:08;;;;;;;7.47;6.03;;;;;;;13.03;81.61;101706.31;5242678;22;20061;-64
2023/05/21 02:37:34;;;;;;;7.75;6.05;;;;;;;13.04;81.68;101718.50;5328333;23;20020;-65
2023/05/21 02:40:01;;;;;;;8.63;5.70;;;;;;;13.04;81.11;101713.28;5185578;23;20063;-64
2023/05/21 02:52:30;;;;;;;8.05;6.15;;;;;;;13.08;81.38;101703.81;5129025;23;20033;-64
2023/05/21 02:54:56;;;;;;;7.57;5.68;;;;;;;13.10;80.93;101698.59;5136939;22;20128;-65
2023/05/21 02:57:21;;;;;;;8.13;6.15;;;;;;;13.10;82.05;101699.47;5204213;22;20042;-64
2023/05/21 03:02:11;;;;;;;9.27;6.05;;;;;;;13.05;82.31;101694.13;5418122;23;20434;-64
2023/05/21 03:04:37;;;;;;;8.07;6.40;;;;;;;13.01;83.62;101688.78;5118498;23;20012;-64
2023/05/21 03:07:04;;;;;;;7.68;5.80;;;;;;;13.04;80.66;101689.72;5437058;22;20024;-64
2023/05/21 03:09:29;;;;;;;7.78;6.00;;;;;;;13.05;78.69;101688.91;5047842;23;20053;-64
2023/05/21 03:11:54;;;;;;;10.65;6.20;;;;;;;13.10;81.42;101682.91;5194161;23;20053;-64
2023/05/21 03:14:20;;;;;;;7.47;6.40;;;;;;;13.13;81.82;101685.59;5201112;23;20085;-64
2023/05/21 03:19:21;;;;;;;10.07;6.05;;;;;;;13.13;81.68;101683.00;5185368;23;20053;-64
2023/05/21 03:21:47;;;;;;;8.60;5.95;;;;;;;13.14;81.66;101676.91;5186368;22;20117;-64
2023/05/21 03:26:42;;;;;;;8.55;6.07;;;;;;;13.16;82.48;101670.84;5124529;22;20486;-64
2023/05/21 03:29:08;;;;;;;7.80;6.03;;;;;;;13.14;81.59;101675.19;5208030;22;20127;-65
2023/05/21 03:31:33;;;;;;;9.27;6.80;;;;;;;13.16;82.80;101680.44;5262964;22;20045;-65
2023/05/21 03:33:58;;;;;;;8.85;6.25;;;;;;;13.17;82.60;101677.00;5529844;22;20077;-65
2023/05/21 03:36:24;;;;;;;9.45;6.20;;;;;;;13.17;82.38;101672.63;5324083;22;20060;-65
2023/05/21 03:38:49;;;;;;;8.43;6.00;;;;;;;13.17;82.98;101671.75;5230917;22;20049;-64
2023/05/21 03:41:15;;;;;;;8.25;6.03;;;;;;;13.16;81.92;101681.31;5152205;23;20140;-65
2023/05/21 03:43:40;;;;;;;8.82;6.05;;;;;;;13.19;82.75;101683.13;5210314;23;20711;-64
2023/05/21 03:46:05;;;;;;;8.02;5.85;;;;;;;13.20;81.00;101683.19;5183016;23;20057;-65
2023/05/21 03:48:31;;;;;;;8.70;6.07;;;;;;;13.26;82.37;101682.47;5197475;22;20314;-65
2023/05/21 03:53:27;;;;;;;8.77;6.60;;;;;;;13.26;83.54;101677.22;5212826;22;20089;-65
2023/05/21 03:58:22;;;;;;;7.63;6.10;;;;;;;13.20;83.95;101677.94;5224406;23;20031;-65
2023/05/21 04:00:48;;;;;;;7.70;6.55;;;;;;;13.19;83.38;101680.53;5434969;22;20025;-65
2023/05/21 04:05:42;;;;;;;8.93;6.82;;;;;;;13.17;83.40;101677.00;5321523;22;20040;-65
2023/05/21 04:10:43;;;;;;;8.77;7.03;;;;;;;13.09;85.01;101678.50;5160963;22;1080321;-65
2023/05/21 04:18:22;;;;;;;9.43;6.97;;;;;;;13.00;85.58;101679.16;5179489;22;20107;-65
2023/05/21 04:20:48;;;;;;;8.50;6.78;;;;;;;12.96;85.75;101680.81;5204266;23;20090;-65
2023/05/21 04:23:14;;;;;;;9.13;6.50;;;;;;;12.96;85.25;101690.38;5032280;28;20409;-64
2023/05/21 04:25:39;;;;;;;10.55;6.60;;;;;;;12.94;84.89;101684.22;5136887;22;20069;-65
2023/05/21 04:28:05;;;;;;;9.25;7.07;;;;;;;12.94;85.84;101685.09;5240521;22;20035;-65
2023/05/21 04:33:04;;;;;;;8.27;6.85;;;;;;;12.92;86.44;101686.81;5268967;22;20137;-64
2023/05/21 04:35:30;;;;;;;9.25;7.15;;;;;;;12.92;86.38;101686.81;5376545;22;20050;-65
2023/05/21 04:45:28;;;;;;;10.55;7.82;;;;;;;12.94;86.25;101700.78;5198802;22;20103;-65
2023/05/21 04:47:53;;;;;;;10.23;7.30;;;;;;;12.97;85.75;101695.66;5089445;23;20223;-65
2023/05/21 04:50:19;;;;;;;9.18;7.45;;;;;;;12.98;86.53;101693.94;5292245;22;20221;-65
2023/05/21 04:52:44;;;;;;;11.23;7.65;;;;;;;12.99;86.67;101699.22;5456907;22;20076;-65
2023/05/21 04:55:10;;;;;;;10.32;7.40;;;;;;;13.02;86.70;101694.06;5400251;23;20143;-65
2023/05/21 05:00:11;;;;;;;7.97;6.38;;;;;;;13.02;85.64;101693.16;5338718;22;20056;-65
2023/05/21 05:05:05;;;;;;;8.38;6.80;;;;;;;13.08;85.29;101702.91;5113665;22;20057;-65
2023/05/21 05:07:31;;;;;;;10.02;6.90;;;;;;;13.12;86.73;101696.91;5003331;28;20079;-65
2023/05/21 05:09:56;;;;;;;9.65;7.00;;;;;;;13.16;86.72;101701.38;5003592;28;20057;-65
2023/05/21 05:14:53;;;;;;;9.27;7.38;;;;;;;13.19;85.79;101691.00;5315653;22;20057;-65
2023/05/21 05:19:52;;;;;;;9.77;7.18;;;;;;;13.14;86.99;101683.03;5420723;22;20049;-65
2023/05/21 05:22:17;;;;;;;9.18;7.07;;;;;;;13.16;86.60;101686.56;5221206;23;20052;-65
2023/05/21 05:24:42;;;;;;;8.93;6.97;;;;;;;13.20;86.56;101690.16;5226849;23;20068;-65
2023/05/21 05:27:08;;;;;;;10.25;7.68;;;;;;;13.24;86.41;101692.00;5423344;22;20999;-65
2023/05/21 05:29:33;;;;;;;8.95;7.00;;;;;;;13.30;87.29;101686.06;5374058;23;20025;-65
2023/05/21 05:31:58;;;;;;;7.78;6.97;;;;;;;13.33;86.70;101689.63;5225241;23;20077;-65
2023/05/21 05:36:53;;;;;;;10.35;7.72;;;;;;;13.35;85.21;101687.06;5094940;22;20046;-65
2023/05/21 05:39:18;;;;;;;9.57;7.90;;;;;;;13.39;86.51;101686.31;5277381;23;20072;-66
2023/05/21 05:41:43;;;;;;;11.27;7.80;;;;;;;13.42;87.27;101688.13;5241209;22;20590;-65
2023/05/21 05:44:08;;;;;;;8.95;7.55;;;;;;;13.44;86.89;101692.56;5264204;22;20517;-65
2023/05/21 05:46:34;;;;;;;9.50;7.53;;;;;;;13.45;85.32;101688.19;5410508;22;20024;-65
2023/05/21 05:51:29;;;;;;;9.52;7.82;;;;;;;13.50;87.66;101686.59;5206114;22;20031;-65
2023/05/21 05:56:30;;;;;;;10.85;8.00;;;;;;;13.57;86.60;101684.16;5352937;22;20058;-65
2023/05/21 05:58:55;;;;;;;10.18;8.38;;;;;;;13.60;87.64;101687.69;5378418;23;20644;-65
2023/05/21 06:01:23;;;;;;;10.57;8.20;;;;;;;13.63;87.48;101683.44;5102811;23;20041;-65
2023/05/21 06:08:51;;;;;;;9.55;7.30;;;;;;;13.82;85.91;101704.84;5220562;22;20032;-65
2023/05/21 06:21:32;;;;;;;9.57;8.10;;;;;;;14.06;85.77;101687.06;5309937;22;20446;-66
2023/05/21 06:23:58;;;;;;;10.18;8.25;;;;;;;14.15;84.47;101688.09;5224753;23;20558;-66
2023/05/21 06:26:23;;;;;;;11.30;8.30;;;;;;;14.21;85.55;101691.75;5030867;28;20024;-65
2023/05/21 06:28:49;;;;;;;11.80;8.52;;;;;;;14.30;86.09;101691.06;5223531;22;20103;-65
2023/05/21 06:31:15;;;;;;;11.85;8.90;;;;;;;14.40;85.10;101697.41;5091146;22;20501;-65
2023/05/21 06:33:40;;;;;;;10.77;8.85;;;;;;;14.47;84.22;101693.16;5029836;28;20037;-65
2023/05/21 06:38:45;;;;;;;9.80;8.63;;;;;;;14.63;85.33;101694.41;5123232;22;20045;-65
2023/05/21 06:43:40;;;;;;;11.57;9.10;;;;;;;14.78;84.45;101697.34;5244154;22;20065;-66
2023/05/21 06:46:05;;;;;;;10.20;6.95;;;;;;;14.86;81.81;101684.38;4981783;28;20638;-66
2023/05/21 06:48:31;;;;;;;11.13;8.88;;;;;;;14.91;84.31;101694.09;5152709;23;20334;-65
2023/05/21 06:50:56;;;;;;;12.20;9.23;;;;;;;15.01;84.63;101687.28;5193371;22;20053;-65
2023/05/21 06:53:21;;;;;;;11.43;9.50;;;;;;;15.12;84.68;101687.50;5035079;28;20056;-65
2023/05/21 06:55:47;;;;;;;11.50;9.38;;;;;;;15.19;82.45;101688.50;5193677;23;20045;-66
2023/05/21 06:58:13;;;;;;;11.20;9.00;;;;;;;15.26;82.46;101685.13;5246879;22;20119;-65
2023/05/21 07:00:38;;;;;;;11.48;9.20;;;;;;;15.34;83.71;101677.38;5214240;22;20060;-65
2023/05/21 07:03:03;;;;;;;13.80;9.40;;;;;;;15.41;83.82;101674.00;5032015;28;20484;-65
2023/05/21 07:05:29;;;;;;;11.07;9.50;;;;;;;15.47;83.14;101668.88;5176562;22;20064;-65
2023/05/21 07:07:54;;;;;;;11.77;9.60;;;;;;;15.58;83.45;101666.41;5174028;22;20113;-66
2023/05/21 07:10:19;;;;;;;12.13;9.90;;;;;;;15.67;83.17;101669.19;5313823;22;21083;-65
2023/05/21 07:12:45;;;;;;;11.30;9.35;;;;;;;15.72;81.58;101666.63;5445639;22;20114;-66
2023/05/21 07:15:10;;;;;;;11.38;9.68;;;;;;;15.80;82.39;101668.53;5416381;22;20049;-66
2023/05/21 07:20:06;;;;;;;11.27;9.30;;;;;;;15.94;81.87;101659.97;5074864;22;20107;-66
2023/05/21 07:22:32;;;;;;;13.40;9.35;;;;;;;16.05;82.32;101654.84;5386834;22;20119;-66
2023/05/21 07:24:57;;;;;;;12.50;9.25;;;;;;;16.14;82.15;101663.75;5034651;28;20624;-66
2023/05/21 07:27:22;;;;;;;13.18;10.00;;;;;;;16.19;81.39;101663.81;5408429;22;20076;-66
2023/05/21 07:29:48;;;;;;;12.90;9.57;;;;;;;16.26;81.68;101667.44;4334796;22;20550;-96
2023/05/21 07:34:44;;;;;;;13.88;10.88;;;;;;;16.44;81.99;101664.16;4170288;22;20045;-96
2023/05/21 07:37:11;;;;;;;13.38;10.20;;;;;;;16.56;81.17;101663.44;5030456;28;20034;-96
2023/05/21 07:39:37;;;;;;;13.00;10.43;;;;;;;16.64;80.86;101645.97;5019013;28;20032;-96
2023/05/21 07:42:02;;;;;;;13.23;10.68;;;;;;;16.78;81.41;101652.25;5023720;28;20030;-95
2023/05/21 07:44:30;;;;;;;13.85;10.77;;;;;;;16.89;80.45;101654.16;5016474;28;20594;-95
2023/05/21 07:46:56;;;;;;;14.07;11.48;;;;;;;16.97;80.92;101652.50;5015001;28;20025;-96
2023/05/21 07:49:26;;;;;;;14.27;10.63;;;;;;;17.06;81.07;101655.25;5020148;28;20500;-96
2023/05/21 07:51:51;;;;;;;14.05;10.50;;;;;;;17.13;78.78;101656.16;5007517;28;20506;-96
2023/05/21 07:54:19;;;;;;;13.35;10.52;;;;;;;17.17;77.42;101647.44;5003242;28;20022;-96
2023/05/21 07:56:45;;;;;;;14.35;11.75;;;;;;;17.29;80.11;101654.56;5002535;28;20431;-95
2023/05/21 07:59:10;;;;;;;12.27;10.80;;;;;;;17.32;75.94;101654.56;5001766;28;20045;-95
2023/05/21 08:01:36;;;;;;;12.45;10.45;;;;;;;17.53;77.48;101656.53;4999956;28;20634;-95
2023/05/21 08:04:07;;;;;;;13.30;10.55;;;;;;;17.63;78.66;101655.72;5000333;28;20028;-96
2023/05/21 08:06:32;;;;;;;13.50;12.10;;;;;;;17.70;77.38;101661.94;5000502;28;20474;-96
2023/05/21 08:09:00;;;;;;;15.13;11.38;;;;;;;17.73;75.40;101659.31;5002244;28;20031;-96
2023/05/21 08:11:29;;;;;;;15.07;12.30;;;;;;;17.75;78.54;101662.81;5002344;28;20029;-96
2023/05/21 08:13:57;;;;;;;15.73;11.77;;;;;;;17.83;78.52;101655.84;5004211;28;20017;-96
2023/05/21 08:16:23;;;;;;;16.90;12.43;;;;;;;18.01;77.91;101652.47;5002023;28;20160;-96
2023/05/21 08:18:49;;;;;;;16.83;12.27;;;;;;;18.11;75.61;101656.06;5001121;28;20272;-96
2023/05/21 08:21:20;;;;;;;14.57;11.98;;;;;;;18.23;77.29;101653.50;5017287;28;20676;-96
2023/05/21 08:23:48;;;;;;;15.43;11.95;;;;;;;18.39;74.87;101648.25;4998493;28;20053;-96
2023/05/21 08:28:51;;;;;;;16.58;12.48;;;;;;;18.59;76.50;101651.84;5063097;22;20061;-68
2023/05/21 08:31:20;;;;;;;13.32;11.50;;;;;;;18.73;74.53;101648.41;5169807;22;20064;-68
2023/05/21 08:33:52;;;;;;;15.70;12.50;;;;;;;18.94;73.99;101651.13;5232175;22;20064;-68
2023/05/21 08:41:28;;;;;;;15.38;12.07;;;;;;;19.08;75.96;101632.63;5278066;22;20160;-68
2023/05/21 08:44:00;;;;;;;15.18;12.30;;;;;;;19.14;72.07;101630.88;5032549;28;20036;-68
2023/05/21 08:48:55;;;;;;;;;;;;;;;19.05;73.47;101624.72;5273876;22;20061;-68
2023/05/21 08:51:21;;;;;;;19.30;13.88;;;;;;;19.08;72.58;101629.13;5033039;28;20314;-68
2023/05/21 08:53:47;;;;;;;17.33;14.23;;;;;;;19.18;73.81;101627.38;5197031;22;20032;-68
2023/05/21 08:58:47;;;;;;;17.73;14.07;;;;;;;19.40;72.67;101629.13;5338110;22;20061;-68
2023/05/21 09:01:13;;;;;;;19.65;14.23;;;;;;;19.37;71.26;101630.91;5098344;23;20704;-68
2023/05/21 09:03:39;;;;;;;17.63;14.20;;;;;;;19.36;71.39;101627.34;5150241;23;20064;-68
2023/05/21 09:08:34;;;;;;;18.08;13.70;;;;;;;19.72;72.75;101622.91;5212243;22;20073;-67
2023/05/21 09:11:00;;;;;;;17.25;13.38;;;;;;;19.92;72.10;101619.38;5031287;28;20087;-67
2023/05/21 09:16:01;;;;;;;21.10;14.98;;;;;;;20.22;68.75;101614.84;4976634;26;20054;-69
2023/05/21 09:24:00;;;;;;;19.48;14.82;;;;;;;20.45;70.12;101626.25;5275468;22;20065;-68
2023/05/21 09:29:00;;;;;;;17.92;14.32;;;;;;;20.38;66.80;101624.50;5190468;22;20065;-69
2023/05/21 09:33:55;;;;;;;20.88;15.27;;;;;;;20.26;69.26;101632.47;5215149;22;20095;-68
2023/05/21 09:36:20;;;;;;;19.73;14.13;;;;;;;20.27;69.88;101627.19;5424971;22;20025;-68
2023/05/21 09:41:15;;;;;;;21.67;15.63;;;;;;;20.32;68.55;101619.25;5086261;23;20702;-68
2023/05/21 09:43:43;;;;;;;20.40;15.48;;;;;;;20.23;70.13;101616.63;5089704;22;20070;-68
2023/05/21 09:48:42;;;;;;;22.63;15.90;;;;;;;20.27;69.34;101611.31;5141469;22;20042;-68
2023/05/21 09:51:07;;;;;;;19.98;15.65;;;;;;;20.46;67.43;101604.16;4991609;28;20066;-68
2023/05/21 09:56:04;;;;;;;19.08;15.10;;;;;;;20.91;66.16;101600.38;4974923;28;20808;-68
2023/05/21 09:58:29;;;;;;;19.50;15.35;;;;;;;21.04;67.98;101596.75;5088472;22;20829;-68
2023/05/21 10:00:55;;;;;;;22.88;15.32;;;;;;;21.16;67.85;101603.72;4990723;28;20171;-68
2023/05/21 10:03:22;;;;;;;21.10;15.15;;;;;;;21.26;67.75;101602.78;5353807;23;20062;-68
2023/05/21 10:05:51;;;;;;;21.42;15.32;;;;;;;21.37;67.13;101598.22;4953856;28;20034;-69
2023/05/21 10:08:20;;;;;;;21.47;15.57;;;;;;;21.59;67.64;101607.78;5166182;22;20047;-68
2023/05/21 10:10:48;;;;;;;20.83;16.10;;;;;;;21.44;62.39;101600.84;5408170;22;20326;-68
2023/05/21 10:13:17;;;;;;;20.55;15.77;;;;;;;21.60;65.96;101597.16;5263342;22;20062;-68
2023/05/21 10:15:49;;;;;;;19.95;15.68;;;;;;;21.66;65.93;101596.22;5209526;23;20129;-68
2023/05/21 10:20:40;;;;;;;19.15;14.25;;;;;;;22.15;64.89;101589.47;5352254;22;20593;-68
2023/05/21 10:23:06;;;;;;;22.38;16.17;;;;;;;21.98;66.05;101581.72;5142434;23;20065;-68
2023/05/21 10:25:32;;;;;;;22.80;16.88;;;;;;;21.97;66.46;101583.50;5005224;28;20968;-68
2023/05/21 10:30:31;;;;;;;22.80;17.23;;;;;;;22.30;66.36;101575.97;4978707;28;20109;-68
2023/05/21 10:37:57;;;;;;;20.42;15.48;;;;;;;22.81;62.89;101567.31;5101762;22;20050;-69
2023/05/21 10:40:23;;;;;;;22.48;15.80;;;;;;;22.91;61.18;101560.97;5120781;23;20062;-68
2023/05/21 10:43:10;;;;;;;22.60;16.38;;;;;;;22.93;62.79;101568.91;5395431;23;20092;-68
2023/05/21 10:45:38;;;;;;;22.63;17.60;;;;;;;23.05;64.69;101555.41;5308081;23;20050;-69
2023/05/21 10:58:38;;;;;;;21.85;17.10;;;;;;;23.64;62.46;101542.84;4993275;28;20583;-68
2023/05/21 11:03:39;;;;;;;26.33;17.90;;;;;;;23.87;60.29;101534.41;4977741;26;20106;-68
2023/05/21 11:13:49;;;;;;;23.05;17.33;;;;;;;24.54;60.58;101528.50;5244009;22;20193;-69
2023/05/21 11:16:15;;;;;;;26.35;19.35;;;;;;;24.45;58.48;101522.47;5146447;23;20124;-69
2023/05/21 11:21:17;;;;;;;28.45;20.38;;;;;;;24.61;56.15;101512.38;5143476;22;20069;-69
2023/05/21 11:23:54;;;;;;;26.35;19.23;;;;;;;24.75;57.12;101511.13;4994951;28;20436;-68
2023/05/21 11:26:26;;;;;;;26.63;20.55;;;;;;;24.73;56.31;101510.31;5279474;22;20065;-68
2023/05/21 11:29:03;;;;;;;28.30;21.08;;;;;;;24.73;53.79;101505.00;5170001;22;20089;-69
2023/05/21 11:31:36;;;;;;;28.83;20.20;;;;;;;24.83;58.22;101502.03;5066659;23;20009;-68
2023/05/21 11:34:28;;;;;;;27.25;21.35;;;;;;;24.63;56.52;101493.66;5232092;22;20117;-69
2023/05/21 11:37:39;;;;;;;29.60;22.30;;;;;;;24.61;53.81;101492.84;5285400;23;20696;-68
2023/05/21 11:42:37;;;;;;;29.08;20.73;;;;;;;24.92;58.75;101500.91;5359579;22;20128;-68
2023/05/21 11:45:03;;;;;;;27.70;20.90;;;;;;;25.01;58.71;101494.47;5139520;22;20082;-68
2023/05/21 11:47:30;;;;;;;26.35;19.75;;;;;;;25.39;56.33;101494.38;5275717;22;20050;-68
2023/05/21 11:52:22;;;;;;;28.27;20.77;;;;;;;25.26;54.55;101500.03;5290120;22;20051;-69
2023/05/21 11:54:55;;;;;;;26.98;19.95;;;;;;;25.28;54.43;101502.66;5192070;22;20116;-68
2023/05/21 11:57:21;;;;;;;27.08;20.77;;;;;;;25.29;54.78;101496.41;5195592;22;20054;-68
2023/05/21 12:02:22;;;;;;;26.60;20.63;;;;;;;25.76;54.07;101478.19;5087131;22;20066;-68
2023/05/21 12:04:50;;;;;;;26.55;20.83;;;;;;;25.73;52.55;101480.94;5170224;22;20046;-68
2023/05/21 12:07:18;;;;;;;28.45;20.52;;;;;;;25.80;55.21;101474.50;5165274;22;20054;-68
2023/05/21 12:14:52;;;;;;;26.27;20.20;;;;;;;26.13;54.65;101470.88;5180855;23;20762;-68
2023/05/21 12:17:21;;;;;;;24.20;19.25;;;;;;;26.37;53.72;101471.88;5243701;22;20043;-68
2023/05/21 12:22:16;;;;;;;25.67;19.80;;;;;;;26.52;52.02;101463.38;5248730;22;20065;-68
2023/05/21 12:24:42;;;;;;;30.02;21.52;;;;;;;26.08;49.07;101460.31;5175184;22;20057;-69
2023/05/21 12:27:09;;;;;;;26.35;19.63;;;;;;;26.24;54.68;101458.03;5162524;22;20057;-69
2023/05/21 12:29:37;;;;;;;31.92;20.27;;;;;;;26.26;48.77;101461.56;5174262;22;20092;-68
2023/05/21 12:37:00;;;;;;;26.77;19.52;;;;;;;25.74;54.11;101458.69;5127162;22;20050;-68
2023/05/21 12:39:26;;;;;;;29.35;20.80;;;;;;;25.64;50.92;101457.22;5131928;22;20478;-68
2023/05/21 12:41:53;;;;;;;24.60;19.13;;;;;;;25.66;53.97;101458.91;5216107;22;20060;-68
2023/05/21 12:44:18;;;;;;;28.85;20.35;;;;;;;25.72;55.21;101460.50;5198472;22;20057;-68
2023/05/21 12:46:44;;;;;;;24.73;20.10;;;;;;;25.48;51.86;101476.31;5172814;23;20506;-68
2023/05/21 12:51:39;;;;;;;24.83;19.55;;;;;;;25.75;55.12;101473.78;5299340;22;20088;-68
2023/05/21 12:56:44;;;;;;;25.92;19.00;;;;;;;25.80;55.15;101471.84;4973312;28;20054;-68
2023/05/21 12:59:14;;;;;;;24.85;18.90;;;;;;;25.93;52.90;101476.81;4973673;28;20038;-68
2023/05/21 13:01:39;;;;;;;25.30;19.65;;;;;;;25.87;54.74;101475.19;5253420;22;20102;-68
2023/05/21 13:04:06;;;;;;;24.83;18.67;;;;;;;25.93;53.13;101484.81;5127518;23;20156;-68
2023/05/21 13:09:02;;;;;;;22.77;18.02;;;;;;;25.81;51.71;101480.69;4978304;28;20061;-68
2023/05/21 13:14:15;;;;;;;;;;;;;;;;;;;;;
2023/05/21 13:16:51;;;;;;;23.52;17.85;;;;;;;25.84;53.84;101486.84;5019198;28;20153;-96
2023/05/21 13:19:30;;;;;;;24.17;18.23;;;;;;;25.99;53.59;101484.63;4993099;28;20017;-96
2023/05/21 13:22:03;;;;;;;21.63;17.73;;;;;;;25.66;52.93;101485.59;4999317;28;20022;-96
2023/05/21 13:24:34;;;;;;;24.52;18.80;;;;;;;25.75;52.49;101486.22;5006274;28;20029;-96
2023/05/21 13:27:03;;;;;;;24.58;18.98;;;;;;;25.95;51.99;101480.31;4995744;28;20105;-96
2023/05/21 13:29:28;;;;;;;23.63;17.60;;;;;;;26.10;53.55;101482.53;4999426;28;20022;-96
2023/05/21 13:31:54;;;;;;;24.67;18.77;;;;;;;26.09;52.06;101480.78;4991416;28;20526;-96
2023/05/21 13:34:19;;;;;;;24.67;17.70;;;;;;;25.99;53.80;101477.47;4991980;28;20018;-96
2023/05/21 13:36:45;;;;;;;25.25;17.25;;;;;;;26.15;54.76;101472.56;4993601;28;20026;-96
2023/05/21 13:39:11;;;;;;;20.95;16.23;;;;;;;26.30;53.71;101475.66;4991506;28;20036;-96
2023/05/21 13:41:41;;;;;;;24.45;18.52;;;;;;;26.28;53.15;101470.38;4986707;28;20033;-96
2023/05/21 13:44:06;;;;;;;23.52;17.88;;;;;;;26.33;52.12;101470.22;4992757;28;20057;-96
2023/05/21 13:46:39;;;;;;;22.40;17.05;;;;;;;26.34;53.26;101461.28;4996455;28;20085;-96
2023/05/21 13:49:05;;;;;;;23.13;18.02;;;;;;;26.31;52.95;101466.75;4989685;28;20499;-96
2023/05/21 13:51:30;;;;;;;22.83;18.58;;;;;;;26.24;53.35;101462.53;4987361;28;20081;-96
2023/05/21 13:53:56;;;;;;;22.85;18.27;;;;;;;26.25;51.98;101461.59;4979695;28;20026;-96
2023/05/21 13:56:27;;;;;;;22.65;17.50;;;;;;;26.37;51.63;101458.53;4981122;28;20409;-96
2023/05/21 13:58:53;;;;;;;21.60;17.30;;;;;;;26.26;54.31;101463.34;4977975;28;20030;-96
2023/05/21 14:01:18;;;;;;;24.27;18.67;;;;;;;26.19;54.60;101458.19;4977623;28;20030;-96
2023/05/21 14:03:46;;;;;;;23.90;17.48;;;;;;;26.16;49.74;101458.28;4990103;28;20391;-96
2023/05/21 14:06:18;;;;;;;21.07;17.57;;;;;;;26.21;52.12;101447.47;4975021;28;20059;-96
2023/05/21 14:08:43;;;;;;;20.33;16.80;;;;;;;26.44;55.15;101444.03;4991874;28;20360;-96
2023/05/21 14:11:08;;;;;;;22.73;17.33;;;;;;;26.23;52.53;101442.06;4976639;28;20551;-96
2023/05/21 14:13:39;;;;;;;21.38;16.30;;;;;;;26.18;54.30;101437.72;4972904;28;20050;-96
2023/05/21 14:16:05;;;;;;;22.33;18.35;;;;;;;26.15;49.76;101445.84;4971062;28;20033;-96
2023/05/21 14:18:30;;;;;;;22.65;17.27;;;;;;;26.08;53.20;101432.75;4972676;28;20053;-96
2023/05/21 14:20:58;;;;;;;20.20;16.25;;;;;;;26.09;54.61;101430.03;4972458;28;20277;-96
2023/05/21 14:23:26;;;;;;;19.73;15.93;;;;;;;26.12;53.24;101434.41;4994627;28;20026;-96
2023/05/21 14:26:02;;;;;;;21.02;15.82;;;;;;;26.23;53.39;101428.72;4978764;28;20094;-96
2023/05/21 14:28:30;;;;;;;21.10;16.23;;;;;;;26.29;53.70;101433.88;4977524;28;20073;-96
2023/05/21 14:30:58;;;;;;;19.90;16.05;;;;;;;26.27;54.01;101435.69;4972315;28;20030;-96
2023/05/21 14:33:26;;;;;;;22.03;17.00;;;;;;;26.32;53.07;101426.63;4984599;28;20054;-96
2023/05/21 14:35:54;;;;;;;20.50;15.90;;;;;;;26.37;52.81;101432.69;4971432;28;20022;-96
2023/05/21 14:38:25;;;;;;;22.52;16.65;;;;;;;26.30;50.99;101425.81;4968447;28;20031;-96
2023/05/21 14:40:54;;;;;;;19.27;15.50;;;;;;;26.28;52.93;101424.97;4974224;28;20033;-96
2023/05/21 14:43:34;;;;;;;19.63;15.20;;;;;;;26.45;54.59;101420.88;4969565;28;20031;-96
2023/05/21 14:46:17;;;;;;;22.15;15.73;;;;;;;26.46;52.02;101415.47;4972012;28;20046;-96
2023/05/21 14:48:59;;;;;;;18.50;15.57;;;;;;;26.51;54.22;101421.53;4981468;28;20038;-96
2023/05/21 14:51:24;;;;;;;19.50;15.48;;;;;;;26.67;52.98;101415.66;5145334;23;20029;-65
2023/05/21 14:53:50;;;;;;;19.08;16.40;;;;;;;26.80;53.58;101417.00;5126932;23;20142;-95
2023/05/21 14:56:15;;;;;;;19.45;15.18;;;;;;;26.90;52.71;101414.88;4991014;28;20033;-95
2023/05/21 14:58:40;;;;;;;21.50;16.83;;;;;;;26.96;51.69;101409.31;4979927;28;20384;-95
2023/05/21 15:01:06;;;;;;;19.33;15.38;;;;;;;26.83;50.98;101406.19;4996436;28;20121;-95
2023/05/21 15:04:13;;;;;;;19.88;14.95;;;;;;;26.86;51.31;101400.72;4995447;28;20060;-96
2023/05/21 15:07:01;;;;;;;18.60;15.73;;;;;;;26.80;51.96;101398.28;4998053;28;20026;-96
2023/05/21 15:10:10;;;;;;;18.95;15.88;;;;;;;26.81;50.83;101392.00;5013242;28;20086;-96
2023/05/21 15:16:31;;;;;;;;;;;;;;;;;;;;;
2023/05/21 15:19:10;;;;;;;19.50;16.48;;;;;;;26.58;52.46;101392.78;5013030;28;20118;-96
2023/05/21 15:21:50;;;;;;;;;;;;;;;26.65;52.28;101398.78;4994709;28;20026;-96
2023/05/21 15:24:59;;;;;;;;;;;;;;;;;;;;;